Time;durP1;ratioP1;P1;durP2;ratioP2;P2;SDS_P1;SDS_P2;PMS_P1;PMS_P2;Temp;Humidity;BMP_temperature;BMP_pressure;BME280_temperature;BME280_humidity;BME280_pressure;Samples;Min_cycle;Max_cycle;Signal;HPM_P1;HPM_P2
2023/09/15 00:00:24;;;;;;;1999.90;999.90;;;;;;;;;;5085186;28;20065;-91
2023/09/15 00:02:51;;;;;;;1999.90;999.90;;;;;;;;;;5086392;28;20051;-91
2023/09/15 00:05:20;;;;;;;1999.90;999.90;;;;;;;;;;5082384;28;20060;-91
2023/09/15 00:07:46;;;;;;;1999.90;999.90;;;;;;;;;;5080291;28;20083;-91
2023/09/15 00:10:14;;;;;;;1999.90;999.90;;;;;;;;;;5082332;28;20040;-92
2023/09/15 00:12:42;;;;;;;1999.90;999.90;;;;;;;;;;5077353;28;20500;-92
2023/09/15 00:15:10;;;;;;;1999.90;999.90;;;;;;;;;;5084009;28;20056;-94
2023/09/15 00:17:39;;;;;;;1999.90;999.90;;;;;;;;;;5080945;28;20056;-92
2023/09/15 00:20:13;;;;;;;1999.90;999.90;;;;;;;;;;5079589;28;20056;-92
2023/09/15 00:22:41;;;;;;;1999.90;999.90;;;;;;;;;;5082789;28;20044;-92
2023/09/15 00:25:09;;;;;;;1999.90;999.90;;;;;;;;;;5084204;28;20052;-91
2023/09/15 00:27:35;;;;;;;1999.90;999.90;;;;;;;;;;5080249;28;20044;-91
2023/09/15 00:30:02;;;;;;;1999.90;999.90;;;;;;;;;;5081611;28;20059;-91
2023/09/15 00:32:28;;;;;;;1999.90;999.90;;;;;;;;;;5074951;28;20048;-92
2023/09/15 00:34:56;;;;;;;1999.90;999.90;;;;;;;;;;5080569;28;20488;-91
2023/09/15 00:37:23;;;;;;;1999.90;999.90;;;;;;;;;;5079347;28;20477;-91
2023/09/15 00:39:49;;;;;;;1999.90;999.90;;;;;;;;;;5078630;28;20055;-92
2023/09/15 00:42:18;;;;;;;1999.90;999.90;;;;;;;;;;5081098;28;20052;-92
2023/09/15 00:44:45;;;;;;;1999.90;999.90;;;;;;;;;;5088367;28;20144;-92
2023/09/15 00:47:12;;;;;;;1999.90;999.90;;;;;;;;;;5080094;28;20052;-92
2023/09/15 00:49:38;;;;;;;1999.90;999.90;;;;;;;;;;5083716;28;20052;-92
2023/09/15 00:52:07;;;;;;;1999.90;999.90;;;;;;;;;;5079541;28;20071;-91
2023/09/15 00:54:33;;;;;;;1999.90;999.90;;;;;;;;;;5081602;28;20051;-91
2023/09/15 00:57:00;;;;;;;1999.90;999.90;;;;;;;;;;5080756;28;20510;-92
2023/09/15 00:59:27;;;;;;;1999.90;999.90;;;;;;;;;;5081411;28;20056;-91
2023/09/15 01:01:54;;;;;;;1999.90;999.90;;;;;;;;;;5082031;28;20052;-91
2023/09/15 01:04:21;;;;;;;1999.90;999.90;;;;;;;;;;5090527;22;20051;-85
2023/09/15 01:06:50;;;;;;;1999.90;999.90;;;;;;;;;;5070177;28;20053;-85
2023/09/15 01:09:18;;;;;;;1999.90;999.90;;;;;;;;;;5069244;28;20049;-85
2023/09/15 01:11:46;;;;;;;1999.90;999.90;;;;;;;;;;5070038;28;20067;-85
2023/09/15 01:14:13;;;;;;;1999.90;999.90;;;;;;;;;;5070136;28;20040;-85
2023/09/15 01:16:44;;;;;;;1999.90;999.90;;;;;;;;;;5069690;28;20056;-85
2023/09/15 01:19:25;;;;;;;1999.90;999.90;;;;;;;;;;5069459;28;20075;-85
2023/09/15 01:22:18;;;;;;;1999.90;999.90;;;;;;;;;;5069475;28;20044;-85
2023/09/15 01:25:10;;;;;;;1999.90;999.90;;;;;;;;;;5069860;28;20067;-85
2023/09/15 01:27:56;;;;;;;1999.90;999.90;;;;;;;;;;5069140;28;20045;-84
2023/09/15 01:30:25;;;;;;;1999.90;999.90;;;;;;;;;;5068677;28;20045;-85
2023/09/15 01:32:52;;;;;;;1999.90;999.90;;;;;;;;;;5069436;28;20055;-85
2023/09/15 01:35:19;;;;;;;1999.90;999.90;;;;;;;;;;5068567;28;20060;-85
2023/09/15 01:37:46;;;;;;;1999.90;999.90;;;;;;;;;;5069673;28;20493;-84
2023/09/15 01:40:12;;;;;;;1999.90;999.90;;;;;;;;;;5068620;28;20040;-85
2023/09/15 01:42:40;;;;;;;1999.90;999.90;;;;;;;;;;5069158;28;20093;-85
2023/09/15 01:45:09;;;;;;;1999.90;999.90;;;;;;;;;;5069004;28;20050;-85
2023/09/15 01:47:37;;;;;;;1999.90;999.90;;;;;;;;;;5069211;28;20044;-85
2023/09/15 01:50:05;;;;;;;1999.90;999.90;;;;;;;;;;5068324;28;20552;-84
2023/09/15 01:52:31;;;;;;;1999.90;999.90;;;;;;;;;;5069084;28;20127;-85
2023/09/15 01:54:58;;;;;;;1999.90;999.90;;;;;;;;;;5069089;28;20127;-85
2023/09/15 01:57:25;;;;;;;1999.90;999.90;;;;;;;;;;5068843;28;20044;-85
2023/09/15 01:59:51;;;;;;;1999.90;999.90;;;;;;;;;;5068782;28;20404;-84
2023/09/15 02:02:18;;;;;;;1999.90;999.90;;;;;;;;;;5068954;28;20133;-85
2023/09/15 02:04:45;;;;;;;1999.90;999.90;;;;;;;;;;5068676;28;20053;-85
2023/09/15 02:07:12;;;;;;;1999.90;999.90;;;;;;;;;;5068374;28;20048;-85
2023/09/15 02:09:39;;;;;;;1999.90;999.90;;;;;;;;;;5068423;28;20056;-85
2023/09/15 02:12:05;;;;;;;1999.90;999.90;;;;;;;;;;5068804;28;20045;-85
2023/09/15 02:14:33;;;;;;;1999.90;999.90;;;;;;;;;;5069192;28;20053;-84
2023/09/15 02:16:59;;;;;;;1999.90;999.90;;;;;;;;;;5066876;28;20071;-86
2023/09/15 02:19:26;;;;;;;1999.90;999.90;;;;;;;;;;5068713;28;20044;-85
2023/09/15 02:21:53;;;;;;;1999.90;999.90;;;;;;;;;;5068807;28;20455;-85
2023/09/15 02:24:20;;;;;;;1999.90;999.90;;;;;;;;;;5068457;28;20496;-85
2023/09/15 02:26:46;;;;;;;1999.90;999.90;;;;;;;;;;5068681;28;20056;-85
2023/09/15 02:29:14;;;;;;;1999.90;999.90;;;;;;;;;;5068994;28;20048;-84
2023/09/15 02:31:41;;;;;;;1999.90;999.90;;;;;;;;;;5068953;28;20051;-85
2023/09/15 02:34:07;;;;;;;1999.90;999.90;;;;;;;;;;5068560;28;20503;-85
2023/09/15 02:36:34;;;;;;;1999.90;999.90;;;;;;;;;;5068330;28;20045;-84
2023/09/15 02:39:02;;;;;;;1999.90;999.90;;;;;;;;;;5068318;28;20509;-84
2023/09/15 02:41:28;;;;;;;1999.90;999.90;;;;;;;;;;5068194;28;20040;-85
2023/09/15 02:43:55;;;;;;;1999.90;999.90;;;;;;;;;;5068007;28;20045;-84
2023/09/15 02:46:21;;;;;;;1999.90;999.90;;;;;;;;;;5067372;28;20052;-86
2023/09/15 02:48:48;;;;;;;1999.90;999.90;;;;;;;;;;5068378;28;20045;-85
2023/09/15 02:51:15;;;;;;;1999.90;999.90;;;;;;;;;;5068233;28;20070;-85
2023/09/15 02:53:41;;;;;;;1999.90;999.90;;;;;;;;;;5068479;28;20053;-85
2023/09/15 02:56:09;;;;;;;1999.90;999.90;;;;;;;;;;5068124;28;20405;-85
2023/09/15 02:58:36;;;;;;;1999.90;999.90;;;;;;;;;;5067707;28;20048;-85
2023/09/15 03:01:12;;;;;;;1999.90;999.90;;;;;;;;;;5068645;28;20094;-85
2023/09/15 03:03:38;;;;;;;;;;;;;;;;;;5068236;28;20460;-85
2023/09/15 03:06:05;;;;;;;1999.90;999.90;;;;;;;;;;5068010;28;19927;-85
2023/09/15 03:08:32;;;;;;;1999.90;999.90;;;;;;;;;;5068463;28;20048;-85
2023/09/15 03:10:58;;;;;;;1999.90;999.90;;;;;;;;;;5068155;28;20041;-86
2023/09/15 03:13:26;;;;;;;1999.90;999.90;;;;;;;;;;5068052;28;20523;-85
2023/09/15 03:15:53;;;;;;;1999.90;999.90;;;;;;;;;;5068135;28;20067;-86
2023/09/15 03:18:19;;;;;;;1999.90;999.90;;;;;;;;;;5067863;28;20512;-85
2023/09/15 03:20:46;;;;;;;1999.90;999.90;;;;;;;;;;5068221;28;20051;-85
2023/09/15 03:23:12;;;;;;;1999.90;999.90;;;;;;;;;;5067435;28;20040;-85
2023/09/15 03:25:39;;;;;;;1999.90;999.90;;;;;;;;;;5067422;28;20402;-85
2023/09/15 03:28:06;;;;;;;1999.90;999.90;;;;;;;;;;5067669;28;20051;-84
2023/09/15 03:30:33;;;;;;;1999.90;999.90;;;;;;;;;;5068137;28;20040;-85
2023/09/15 03:33:00;;;;;;;1999.90;999.90;;;;;;;;;;5068231;28;20060;-85
2023/09/15 03:35:26;;;;;;;1999.90;999.90;;;;;;;;;;5068164;28;20037;-85
2023/09/15 03:37:53;;;;;;;1999.90;999.90;;;;;;;;;;5067650;28;20055;-85
2023/09/15 03:40:21;;;;;;;1999.90;999.90;;;;;;;;;;5067706;28;20420;-85
2023/09/15 03:42:48;;;;;;;1999.90;999.90;;;;;;;;;;5068025;28;20045;-85
2023/09/15 03:45:14;;;;;;;1999.90;999.90;;;;;;;;;;5067759;28;20051;-85
2023/09/15 03:47:42;;;;;;;1999.90;999.90;;;;;;;;;;5067766;28;20052;-85
2023/09/15 03:50:09;;;;;;;1999.90;999.90;;;;;;;;;;5067461;28;20071;-86
2023/09/15 03:52:36;;;;;;;1999.90;999.90;;;;;;;;;;5067084;28;20040;-86
2023/09/15 03:55:03;;;;;;;1999.90;999.90;;;;;;;;;;5067969;28;20052;-86
2023/09/15 03:57:30;;;;;;;1999.90;999.90;;;;;;;;;;5068129;28;20106;-86
2023/09/15 03:59:57;;;;;;;1999.90;999.90;;;;;;;;;;5071463;28;20041;-85
2023/09/15 04:02:23;;;;;;;1999.90;999.90;;;;;;;;;;5071398;28;20052;-85
2023/09/15 04:04:51;;;;;;;1999.90;999.90;;;;;;;;;;5071355;28;20044;-85
2023/09/15 04:07:18;;;;;;;1999.90;999.90;;;;;;;;;;5071349;28;20052;-85
2023/09/15 04:09:44;;;;;;;1999.90;999.90;;;;;;;;;;5071641;28;20518;-85
2023/09/15 04:12:11;;;;;;;1999.90;999.90;;;;;;;;;;5071470;28;20039;-86
2023/09/15 04:14:37;;;;;;;1999.90;999.90;;;;;;;;;;5071512;28;20051;-85
2023/09/15 04:17:04;;;;;;;1999.90;999.90;;;;;;;;;;5071479;28;20411;-85
2023/09/15 04:19:31;;;;;;;1999.90;999.90;;;;;;;;;;5071386;28;20511;-85
2023/09/15 04:21:59;;;;;;;1999.90;999.90;;;;;;;;;;5071273;28;20519;-85
2023/09/15 04:24:26;;;;;;;1999.90;999.90;;;;;;;;;;5071356;28;20621;-86
2023/09/15 04:26:52;;;;;;;1999.90;999.90;;;;;;;;;;5071255;28;20064;-85
2023/09/15 04:29:19;;;;;;;1999.90;999.90;;;;;;;;;;5071241;28;20133;-85
2023/09/15 04:31:45;;;;;;;1999.90;999.90;;;;;;;;;;5070601;28;20055;-85
2023/09/15 04:34:12;;;;;;;1999.90;999.90;;;;;;;;;;5070215;28;20448;-85
2023/09/15 04:36:38;;;;;;;1999.90;999.90;;;;;;;;;;5070848;28;20083;-85
2023/09/15 04:39:07;;;;;;;1999.90;999.90;;;;;;;;;;5070599;28;20048;-85
2023/09/15 04:41:33;;;;;;;1999.90;999.90;;;;;;;;;;5070333;28;20598;-86
2023/09/15 04:44:00;;;;;;;1999.90;999.90;;;;;;;;;;5070734;28;20049;-85
2023/09/15 04:46:26;;;;;;;1999.90;999.90;;;;;;;;;;5070840;28;20048;-85
2023/09/15 04:48:53;;;;;;;1999.90;999.90;;;;;;;;;;5069417;28;20044;-85
2023/09/15 04:51:19;;;;;;;1999.90;999.90;;;;;;;;;;5070566;28;20049;-85
2023/09/15 04:53:46;;;;;;;1999.90;999.90;;;;;;;;;;5070294;28;20036;-85
2023/09/15 04:56:13;;;;;;;1999.90;999.90;;;;;;;;;;5070596;28;20055;-86
2023/09/15 04:58:40;;;;;;;1999.90;999.90;;;;;;;;;;5069970;28;20131;-86
2023/09/15 05:01:07;;;;;;;1999.90;999.90;;;;;;;;;;5070414;28;20049;-85
2023/09/15 05:03:33;;;;;;;1999.90;999.90;;;;;;;;;;5070057;28;20064;-86
2023/09/15 05:06:00;;;;;;;1999.90;999.90;;;;;;;;;;5070079;28;20045;-86
2023/09/15 05:08:27;;;;;;;1999.90;999.90;;;;;;;;;;5069658;28;20512;-85
2023/09/15 05:10:54;;;;;;;1999.90;999.90;;;;;;;;;;5068249;28;20044;-87
2023/09/15 05:13:21;;;;;;;1999.90;999.90;;;;;;;;;;5068555;28;20052;-86
2023/09/15 05:15:48;;;;;;;1999.90;999.90;;;;;;;;;;5068017;28;20048;-86
2023/09/15 05:18:14;;;;;;;1999.90;999.90;;;;;;;;;;5068609;28;20044;-86
2023/09/15 05:20:41;;;;;;;1999.90;999.90;;;;;;;;;;5068371;28;20401;-86
2023/09/15 05:23:07;;;;;;;1999.90;999.90;;;;;;;;;;5069046;28;20048;-85
2023/09/15 05:25:35;;;;;;;1999.90;999.90;;;;;;;;;;5069847;28;20493;-86
2023/09/15 05:28:02;;;;;;;1999.90;999.90;;;;;;;;;;5069960;28;20084;-85
2023/09/15 05:30:30;;;;;;;1999.90;999.90;;;;;;;;;;5069745;28;20131;-85
2023/09/15 05:32:56;;;;;;;1999.90;999.90;;;;;;;;;;5070351;28;20048;-81
2023/09/15 05:35:23;;;;;;;1999.90;999.90;;;;;;;;;;5070962;28;20052;-81
2023/09/15 05:37:49;;;;;;;1999.90;999.90;;;;;;;;;;5071285;28;20052;-81
2023/09/15 05:40:16;;;;;;;1999.90;999.90;;;;;;;;;;5071137;28;20511;-83
2023/09/15 05:42:43;;;;;;;1999.90;999.90;;;;;;;;;;5070547;28;20049;-81
2023/09/15 05:45:10;;;;;;;1999.90;999.90;;;;;;;;;;5070986;28;20480;-81
2023/09/15 05:47:38;;;;;;;1999.90;999.90;;;;;;;;;;5070262;28;20588;-82
2023/09/15 05:50:06;;;;;;;1999.90;999.90;;;;;;;;;;5069310;28;20049;-83
2023/09/15 05:52:33;;;;;;;1999.90;999.90;;;;;;;;;;5069915;28;20432;-83
2023/09/15 05:54:59;;;;;;;1999.90;999.90;;;;;;;;;;5070519;28;20051;-84
2023/09/15 05:57:25;;;;;;;1999.90;999.90;;;;;;;;;;5068040;28;20052;-84
2023/09/15 05:59:52;;;;;;;1999.90;999.90;;;;;;;;;;5069325;28;20046;-83
2023/09/15 06:02:20;;;;;;;1999.90;999.90;;;;;;;;;;5069167;28;20289;-83
2023/09/15 06:04:49;;;;;;;1999.90;999.90;;;;;;;;;;5069251;28;20173;-81
2023/09/15 06:07:15;;;;;;;1999.90;999.90;;;;;;;;;;5069221;28;20052;-81
2023/09/15 06:09:41;;;;;;;1999.90;999.90;;;;;;;;;;5069272;28;20052;-82
2023/09/15 06:12:08;;;;;;;1999.90;999.90;;;;;;;;;;5069009;28;20052;-82
2023/09/15 06:14:35;;;;;;;1999.90;999.90;;;;;;;;;;5068644;28;20501;-83
2023/09/15 06:17:02;;;;;;;1999.90;999.90;;;;;;;;;;5068858;28;20612;-82
2023/09/15 06:19:29;;;;;;;1999.90;999.90;;;;;;;;;;5068523;28;20464;-83
2023/09/15 06:21:57;;;;;;;1999.90;999.90;;;;;;;;;;5068104;28;20049;-82
2023/09/15 06:24:23;;;;;;;1999.90;999.90;;;;;;;;;;5068245;28;20052;-83
2023/09/15 06:26:50;;;;;;;1999.90;999.90;;;;;;;;;;5068122;28;20058;-83
2023/09/15 06:29:16;;;;;;;1999.90;999.90;;;;;;;;;;5068951;28;20045;-84
2023/09/15 06:31:43;;;;;;;1999.90;999.90;;;;;;;;;;5067311;28;20048;-82
2023/09/15 06:34:09;;;;;;;1999.90;999.90;;;;;;;;;;5068694;28;20052;-83
2023/09/15 06:36:38;;;;;;;1999.90;999.90;;;;;;;;;;5069192;28;20412;-83
2023/09/15 06:39:07;;;;;;;1999.90;999.90;;;;;;;;;;5068612;28;20547;-83
2023/09/15 06:41:34;;;;;;;1999.90;999.90;;;;;;;;;;5068155;28;20044;-83
2023/09/15 06:44:00;;;;;;;1999.90;999.90;;;;;;;;;;5068908;28;20646;-83
2023/09/15 06:46:27;;;;;;;1999.90;999.90;;;;;;;;;;5068695;28;20046;-83
2023/09/15 06:48:53;;;;;;;1999.90;999.90;;;;;;;;;;5068033;28;20051;-85
2023/09/15 06:51:20;;;;;;;1999.90;999.90;;;;;;;;;;5068711;28;20045;-82
2023/09/15 06:53:46;;;;;;;1999.90;999.90;;;;;;;;;;5067713;28;20405;-81
2023/09/15 06:56:14;;;;;;;1999.90;999.90;;;;;;;;;;5069484;28;20041;-81
2023/09/15 06:58:41;;;;;;;1999.90;999.90;;;;;;;;;;5068947;28;20477;-82
2023/09/15 07:01:07;;;;;;;1999.90;999.90;;;;;;;;;;5068634;28;20048;-82
2023/09/15 07:03:34;;;;;;;1999.90;999.90;;;;;;;;;;5068302;28;20059;-86
2023/09/15 07:06:03;;;;;;;1999.90;999.90;;;;;;;;;;5068880;28;20040;-83
2023/09/15 07:08:30;;;;;;;1999.90;999.90;;;;;;;;;;5069330;28;20078;-82
2023/09/15 07:10:56;;;;;;;1999.90;999.90;;;;;;;;;;5068728;28;20044;-85
2023/09/15 07:13:24;;;;;;;1999.90;999.90;;;;;;;;;;5069475;28;20457;-83
2023/09/15 07:15:51;;;;;;;1999.90;999.90;;;;;;;;;;5068382;28;20052;-83
2023/09/15 07:18:17;;;;;;;1999.90;999.90;;;;;;;;;;5068208;28;20051;-84
2023/09/15 07:20:44;;;;;;;1999.90;999.90;;;;;;;;;;5068559;28;20511;-84
2023/09/15 07:23:10;;;;;;;1999.90;999.90;;;;;;;;;;5068214;28;20040;-83
2023/09/15 07:25:37;;;;;;;1999.90;999.90;;;;;;;;;;5068779;28;20052;-83
2023/09/15 07:28:04;;;;;;;1999.90;999.90;;;;;;;;;;5068769;28;20155;-82
2023/09/15 07:30:32;;;;;;;1999.90;999.90;;;;;;;;;;5068600;28;20048;-85
2023/09/15 07:32:59;;;;;;;1999.90;999.90;;;;;;;;;;5070432;28;20280;-82
2023/09/15 07:35:26;;;;;;;1999.90;999.90;;;;;;;;;;5071936;28;20055;-83
2023/09/15 07:37:52;;;;;;;1999.90;999.90;;;;;;;;;;5072914;28;20495;-83
2023/09/15 07:40:22;;;;;;;1999.90;999.90;;;;;;;;;;5072563;28;20060;-83
2023/09/15 07:42:49;;;;;;;1999.90;999.90;;;;;;;;;;5072755;28;20591;-82
2023/09/15 07:45:15;;;;;;;1999.90;999.90;;;;;;;;;;5071748;28;20357;-82
2023/09/15 07:47:43;;;;;;;1999.90;999.90;;;;;;;;;;5071444;28;20511;-84
2023/09/15 07:50:10;;;;;;;1999.90;999.90;;;;;;;;;;5072166;28;20055;-83
2023/09/15 07:52:36;;;;;;;1999.90;999.90;;;;;;;;;;5071832;28;20074;-82
2023/09/15 07:55:04;;;;;;;1999.90;999.90;;;;;;;;;;5071030;28;20052;-84
2023/09/15 07:57:32;;;;;;;1999.90;999.90;;;;;;;;;;5070938;28;20102;-82
2023/09/15 07:59:59;;;;;;;1999.90;999.90;;;;;;;;;;5071332;28;20384;-87
2023/09/15 08:02:26;;;;;;;1999.90;999.90;;;;;;;;;;5070476;28;20048;-83
2023/09/15 08:04:54;;;;;;;1999.90;999.90;;;;;;;;;;5071311;28;20052;-83
2023/09/15 08:07:21;;;;;;;1999.90;999.90;;;;;;;;;;5070424;28;20052;-83
2023/09/15 08:09:47;;;;;;;1999.90;999.90;;;;;;;;;;5071059;28;20485;-84
2023/09/15 08:12:16;;;;;;;1999.90;999.90;;;;;;;;;;5071736;28;20048;-84
2023/09/15 08:14:43;;;;;;;1999.90;999.90;;;;;;;;;;5071265;28;20412;-82
2023/09/15 08:17:09;;;;;;;1999.90;999.90;;;;;;;;;;5070694;28;20052;-83
2023/09/15 08:19:36;;;;;;;1999.90;999.90;;;;;;;;;;5071373;28;20451;-82
2023/09/15 08:22:05;;;;;;;1999.90;999.90;;;;;;;;;;5070956;28;20045;-82
2023/09/15 08:24:31;;;;;;;1999.90;999.90;;;;;;;;;;5071108;28;20146;-83
2023/09/15 08:26:58;;;;;;;1999.90;999.90;;;;;;;;;;5070969;28;20135;-82
2023/09/15 08:29:24;;;;;;;1999.90;999.90;;;;;;;;;;5067748;28;20095;-83
2023/09/15 08:31:51;;;;;;;1999.90;999.90;;;;;;;;;;5071119;28;20057;-82
2023/09/15 08:34:18;;;;;;;1999.90;999.90;;;;;;;;;;5070854;28;20044;-83
2023/09/15 08:36:44;;;;;;;1999.90;999.90;;;;;;;;;;5070728;28;20390;-83
2023/09/15 08:39:12;;;;;;;1999.90;999.90;;;;;;;;;;5070517;28;20087;-82
2023/09/15 08:41:40;;;;;;;1999.90;999.90;;;;;;;;;;5071213;28;20500;-84
2023/09/15 08:44:09;;;;;;;1999.90;999.90;;;;;;;;;;5070775;28;20055;-85
2023/09/15 08:46:36;;;;;;;1999.90;999.90;;;;;;;;;;5070555;28;20560;-84
2023/09/15 08:49:05;;;;;;;1999.90;999.90;;;;;;;;;;5069426;28;20048;-83
2023/09/15 08:51:32;;;;;;;1999.90;999.90;;;;;;;;;;5070147;28;20041;-81
2023/09/15 08:53:59;;;;;;;1999.90;999.90;;;;;;;;;;5071198;28;20048;-81
2023/09/15 08:56:27;;;;;;;1999.90;999.90;;;;;;;;;;5070524;28;20484;-82
2023/09/15 08:58:54;;;;;;;1999.90;999.90;;;;;;;;;;5070372;28;20388;-83
2023/09/15 09:01:21;;;;;;;1999.90;999.90;;;;;;;;;;5070337;28;20048;-81
2023/09/15 09:03:47;;;;;;;1999.90;999.90;;;;;;;;;;5071072;28;20054;-82
2023/09/15 09:06:15;;;;;;;1999.90;999.90;;;;;;;;;;5071767;28;20048;-83
2023/09/15 09:08:43;;;;;;;1999.90;999.90;;;;;;;;;;5070807;28;20064;-84
2023/09/15 09:11:10;;;;;;;1999.90;999.90;;;;;;;;;;5068845;28;20512;-82
2023/09/15 09:13:39;;;;;;;1999.90;999.90;;;;;;;;;;5068356;28;20481;-81
2023/09/15 09:16:07;;;;;;;1999.90;999.90;;;;;;;;;;5070886;28;20054;-82
2023/09/15 09:18:34;;;;;;;1999.90;999.90;;;;;;;;;;5067874;28;20056;-83
2023/09/15 09:21:03;;;;;;;1999.90;999.90;;;;;;;;;;5070932;28;20051;-82
2023/09/15 09:23:29;;;;;;;1999.90;999.90;;;;;;;;;;5070633;28;20059;-86
2023/09/15 09:25:56;;;;;;;1999.90;999.90;;;;;;;;;;5070742;28;20048;-82
2023/09/15 09:28:23;;;;;;;1999.90;999.90;;;;;;;;;;5070730;28;20406;-85
2023/09/15 09:30:53;;;;;;;1999.90;999.90;;;;;;;;;;5071875;28;20408;-80
2023/09/15 09:33:21;;;;;;;1999.90;999.90;;;;;;;;;;5072151;28;20044;-82
2023/09/15 09:35:48;;;;;;;1999.90;999.90;;;;;;;;;;5071681;28;20429;-84
2023/09/15 09:38:14;;;;;;;1999.90;999.90;;;;;;;;;;5070424;28;20133;-81
2023/09/15 09:40:41;;;;;;;1999.90;999.90;;;;;;;;;;5071944;28;20048;-84
2023/09/15 09:43:08;;;;;;;1999.90;999.90;;;;;;;;;;5071136;28;20051;-80
2023/09/15 09:45:35;;;;;;;1999.90;999.90;;;;;;;;;;5071984;28;20044;-81
2023/09/15 09:48:03;;;;;;;1999.90;999.90;;;;;;;;;;5071317;28;20080;-79
2023/09/15 09:50:29;;;;;;;1999.90;999.90;;;;;;;;;;5057187;28;20040;-82
2023/09/15 09:52:56;;;;;;;1999.90;999.90;;;;;;;;;;5070743;28;20036;-83
2023/09/15 09:55:25;;;;;;;1999.90;999.90;;;;;;;;;;5070032;28;20049;-85
2023/09/15 09:57:52;;;;;;;1999.90;999.90;;;;;;;;;;5070053;28;20451;-83
2023/09/15 10:00:20;;;;;;;1999.90;999.90;;;;;;;;;;5069572;28;20473;-85
2023/09/15 10:02:47;;;;;;;1999.90;999.90;;;;;;;;;;5070008;28;20070;-82
2023/09/15 10:05:15;;;;;;;1999.90;999.90;;;;;;;;;;5069903;28;20106;-84
2023/09/15 10:07:45;;;;;;;1999.90;999.90;;;;;;;;;;5070025;28;20526;-83
2023/09/15 10:10:12;;;;;;;1999.90;999.90;;;;;;;;;;5069363;28;20102;-82
2023/09/15 10:12:39;;;;;;;1999.90;999.90;;;;;;;;;;5070746;28;20053;-82
2023/09/15 10:15:06;;;;;;;1999.90;999.90;;;;;;;;;;5069926;28;20067;-84
2023/09/15 10:17:33;;;;;;;1999.90;999.90;;;;;;;;;;5070269;28;20054;-87
2023/09/15 10:20:00;;;;;;;1999.90;999.90;;;;;;;;;;5070211;28;20048;-82
2023/09/15 10:22:28;;;;;;;1999.90;999.90;;;;;;;;;;5070693;28;20484;-86
2023/09/15 10:24:58;;;;;;;1999.90;999.90;;;;;;;;;;5069548;28;20044;-82
2023/09/15 10:27:25;;;;;;;1999.90;999.90;;;;;;;;;;5069345;28;20512;-83
2023/09/15 10:29:52;;;;;;;1999.90;999.90;;;;;;;;;;5069485;28;20048;-82
2023/09/15 10:32:19;;;;;;;1999.90;999.90;;;;;;;;;;5069567;28;20056;-84
2023/09/15 10:34:46;;;;;;;1999.90;999.90;;;;;;;;;;5070642;28;20052;-81
2023/09/15 10:37:13;;;;;;;1999.90;999.90;;;;;;;;;;5070586;28;20464;-83
2023/09/15 10:39:41;;;;;;;1999.90;999.90;;;;;;;;;;5069741;28;20068;-83
2023/09/15 10:42:09;;;;;;;1999.90;999.90;;;;;;;;;;5070210;28;20045;-83
2023/09/15 10:44:36;;;;;;;1999.90;999.90;;;;;;;;;;5069714;28;20041;-86
2023/09/15 10:47:03;;;;;;;1999.90;999.90;;;;;;;;;;5070045;28;20134;-85
2023/09/15 10:49:30;;;;;;;1999.90;999.90;;;;;;;;;;5068952;28;20508;-85
2023/09/15 10:51:58;;;;;;;1999.90;999.90;;;;;;;;;;5070293;28;20045;-80
2023/09/15 10:54:26;;;;;;;1999.90;999.90;;;;;;;;;;5070638;28;20049;-87
2023/09/15 10:56:55;;;;;;;1999.90;999.90;;;;;;;;;;5068712;28;20048;-85
2023/09/15 10:59:22;;;;;;;1999.90;999.90;;;;;;;;;;5070055;28;20042;-82
2023/09/15 11:01:48;;;;;;;1999.90;999.90;;;;;;;;;;5069666;28;20044;-81
2023/09/15 11:04:20;;;;;;;1999.90;999.90;;;;;;;;;;5069461;28;20131;-82
2023/09/15 11:06:51;;;;;;;1999.90;999.90;;;;;;;;;;5068635;28;20056;-86
2023/09/15 11:09:19;;;;;;;1999.90;999.90;;;;;;;;;;5070509;28;20055;-81
2023/09/15 11:11:46;;;;;;;1999.90;999.90;;;;;;;;;;5072939;28;20493;-83
2023/09/15 11:14:18;;;;;;;1999.90;999.90;;;;;;;;;;5072882;28;20051;-83
2023/09/15 11:16:48;;;;;;;1999.90;999.90;;;;;;;;;;5072784;28;20060;-83
2023/09/15 11:19:16;;;;;;;1999.90;999.90;;;;;;;;;;5072839;28;20068;-86
2023/09/15 11:21:43;;;;;;;1999.90;999.90;;;;;;;;;;5072498;28;20074;-83
2023/09/15 11:24:10;;;;;;;1999.90;999.90;;;;;;;;;;5073018;28;20485;-83
2023/09/15 11:26:37;;;;;;;1999.90;999.90;;;;;;;;;;5072473;28;20052;-86
2023/09/15 11:29:07;;;;;;;1999.90;999.90;;;;;;;;;;5073419;28;20053;-82
2023/09/15 11:31:37;;;;;;;1999.90;999.90;;;;;;;;;;5073130;28;20052;-84
2023/09/15 11:34:05;;;;;;;1999.90;999.90;;;;;;;;;;5072900;28;20048;-84
2023/09/15 11:36:35;;;;;;;1999.90;999.90;;;;;;;;;;5073039;28;20396;-81
2023/09/15 11:39:04;;;;;;;1999.90;999.90;;;;;;;;;;5072943;28;20485;-83
2023/09/15 11:41:32;;;;;;;1999.90;999.90;;;;;;;;;;5073048;28;20067;-82
2023/09/15 11:43:59;;;;;;;1999.90;999.90;;;;;;;;;;5072812;28;20123;-82
2023/09/15 11:46:25;;;;;;;1999.90;999.90;;;;;;;;;;5072485;28;20055;-83
2023/09/15 11:48:54;;;;;;;1999.90;999.90;;;;;;;;;;5072303;28;20049;-86
2023/09/15 11:51:20;;;;;;;1999.90;999.90;;;;;;;;;;5072883;28;20048;-84
2023/09/15 11:53:47;;;;;;;1999.90;999.90;;;;;;;;;;5073182;28;20040;-83
2023/09/15 11:56:19;;;;;;;1999.90;999.90;;;;;;;;;;5072447;28;20135;-82
2023/09/15 11:58:47;;;;;;;1999.90;999.90;;;;;;;;;;5072263;28;20044;-84
2023/09/15 12:01:13;;;;;;;1999.90;999.90;;;;;;;;;;5071975;28;20540;-83
2023/09/15 12:03:40;;;;;;;1999.90;999.90;;;;;;;;;;5071994;28;20048;-84
2023/09/15 12:06:08;;;;;;;1999.90;999.90;;;;;;;;;;5072400;28;20049;-82
2023/09/15 12:08:34;;;;;;;1999.90;999.90;;;;;;;;;;5071960;28;20051;-83
2023/09/15 12:11:01;;;;;;;1999.90;999.90;;;;;;;;;;5072045;28;20047;-85
2023/09/15 12:13:35;;;;;;;1999.90;999.90;;;;;;;;;;5072620;28;20465;-82
2023/09/15 12:16:02;;;;;;;1999.90;999.90;;;;;;;;;;5070142;28;20041;-85
2023/09/15 12:18:29;;;;;;;1999.90;999.90;;;;;;;;;;5071122;28;20055;-81
2023/09/15 12:20:55;;;;;;;1999.90;999.90;;;;;;;;;;5071800;28;20398;-81
2023/09/15 12:23:28;;;;;;;1999.90;999.90;;;;;;;;;;5072336;28;20052;-84
2023/09/15 12:25:54;;;;;;;1999.90;999.90;;;;;;;;;;5070029;28;20050;-83
2023/09/15 12:28:21;;;;;;;1999.90;999.90;;;;;;;;;;5071781;28;20105;-82
2023/09/15 12:30:48;;;;;;;1999.90;999.90;;;;;;;;;;5071887;28;20163;-81
2023/09/15 12:33:18;;;;;;;1999.90;999.90;;;;;;;;;;5072019;28;20048;-81
2023/09/15 12:35:47;;;;;;;1999.90;999.90;;;;;;;;;;5071413;28;20057;-82
2023/09/15 12:38:16;;;;;;;1999.90;999.90;;;;;;;;;;5071932;28;20045;-81
2023/09/15 12:40:45;;;;;;;1999.90;999.90;;;;;;;;;;5071405;28;20041;-83
2023/09/15 12:43:11;;;;;;;1999.90;999.90;;;;;;;;;;5070411;28;20051;-81
2023/09/15 12:45:38;;;;;;;1999.90;999.90;;;;;;;;;;5071477;28;20044;-82
2023/09/15 12:48:04;;;;;;;1999.90;999.90;;;;;;;;;;5071677;28;20084;-83
2023/09/15 12:50:32;;;;;;;1999.90;999.90;;;;;;;;;;5072290;28;20058;-82
2023/09/15 12:52:59;;;;;;;1999.90;999.90;;;;;;;;;;5071223;28;20809;-84
2023/09/15 12:55:26;;;;;;;1999.90;999.90;;;;;;;;;;5071777;28;20044;-83
2023/09/15 12:57:55;;;;;;;1999.90;999.90;;;;;;;;;;5071385;28;20074;-83
2023/09/15 13:00:21;;;;;;;1999.90;999.90;;;;;;;;;;5071092;28;20135;-82
2023/09/15 13:02:48;;;;;;;1999.90;999.90;;;;;;;;;;5070676;28;20047;-83
2023/09/15 13:05:22;;;;;;;1999.90;999.90;;;;;;;;;;5071213;28;20507;-83
2023/09/15 13:07:49;;;;;;;1999.90;999.90;;;;;;;;;;5070494;28;20049;-85
2023/09/15 13:10:16;;;;;;;1999.90;999.90;;;;;;;;;;5069038;28;20465;-82
2023/09/15 13:12:43;;;;;;;1999.90;999.90;;;;;;;;;;5071889;28;20052;-84
2023/09/15 13:15:11;;;;;;;1999.90;999.90;;;;;;;;;;5071111;28;20059;-82
2023/09/15 13:17:38;;;;;;;1999.90;999.90;;;;;;;;;;5070998;28;20044;-83
2023/09/15 13:20:07;;;;;;;1999.90;999.90;;;;;;;;;;5069577;28;20044;-81
2023/09/15 13:22:34;;;;;;;1999.90;999.90;;;;;;;;;;5070962;28;20072;-81
2023/09/15 13:25:01;;;;;;;1999.90;999.90;;;;;;;;;;5071192;28;20052;-82
2023/09/15 13:27:28;;;;;;;1999.90;999.90;;;;;;;;;;5071101;28;20044;-81
2023/09/15 13:29:56;;;;;;;1999.90;999.90;;;;;;;;;;5069948;28;20515;-81
2023/09/15 13:32:24;;;;;;;1999.90;999.90;;;;;;;;;;5070650;28;20044;-82
2023/09/15 13:34:50;;;;;;;1999.90;999.90;;;;;;;;;;5067327;28;20055;-83
2023/09/15 13:37:17;;;;;;;1999.90;999.90;;;;;;;;;;5070062;28;20046;-84
2023/09/15 13:39:44;;;;;;;1999.90;999.90;;;;;;;;;;5070626;28;20059;-82
2023/09/15 13:42:10;;;;;;;1999.90;999.90;;;;;;;;;;5070442;28;20072;-81